DW1549 Fauske NO current weather conditions

sailwx.info

Wind from 124 at 15 knots gusting 27

Air temperature -1.7° C
Dewpoint -5.2° C

Last reported at 2015-Mar-27 02:48 UTC.
Time now 2015-Mar-27 03:33 UTC

Location: N 67°16' E 015°25'.
View on Google Maps.

See reports from other nearby stations

  
Tides and Currents Weather Stations Pressure Air Temp Water Temp Dewpoint Dewpoint Depression Visibility Wind Speed Wind Dir Waves Ship Positions
date/time (UTC)wind fromknots sea level pressurealtimeterstation pressurevisibilityair tempwater tempwave heightnotes
2015-Mar-27 02:48 124 15 gusting 27 -1.7
2015-Mar-27 02:38 128 19 gusting 33 -1.1
2015-Mar-27 02:28 133 18 gusting 28 -1.1
2015-Mar-27 02:18 129 17 gusting 26 -1.1
2015-Mar-27 02:08 134 18 gusting 27 -0.6
2015-Mar-27 01:58 143 15 gusting 25 -1.1
2015-Mar-27 01:48 130 14 gusting 21 -0.6
2015-Mar-27 01:38 141 10 gusting 26 -0.6
2015-Mar-27 01:28 135 15 gusting 22 -0.6
2015-Mar-27 01:18 143 22 gusting 30 -0.0
2015-Mar-27 01:08 128 19 gusting 31 -0.6
2015-Mar-27 00:58 132 21 gusting 33 -0.0
2015-Mar-27 00:48 129 24 gusting 34 -0.0
2015-Mar-27 00:38 129 20 gusting 33 -0.0
2015-Mar-27 00:28 140 24 gusting 33 -0.0
2015-Mar-27 00:18 132 21 gusting 34 -0.0
2015-Mar-27 00:08 137 18 gusting 33 -0.0
2015-Mar-26 23:58 147 18 gusting 33 -0.0
2015-Mar-26 23:48 136 19 gusting 28 -0.6
2015-Mar-26 23:38 143 19 gusting 33 -0.6
2015-Mar-26 23:28 137 22 gusting 35 -0.6
2015-Mar-26 23:18 176 21 gusting 30 -0.6
2015-Mar-26 23:08 143 21 gusting 34 -0.6
2015-Mar-26 22:58 149 18 gusting 27 -0.6
2015-Mar-26 22:48 130 19 gusting 27 -0.6
2015-Mar-26 22:38 140 18 gusting 28 -0.0
2015-Mar-26 22:28 143 15 gusting 27 -0.0
2015-Mar-26 22:18 130 21 gusting 33 -0.0
2015-Mar-26 22:08 145 23 gusting 35 -0.6
2015-Mar-26 21:58 132 19 gusting 34 -0.6
2015-Mar-26 21:48 149 19 gusting 33 -0.6
2015-Mar-26 21:38 130 21 gusting 31 -0.6
2015-Mar-26 21:28 140 15 gusting 30 -0.0
2015-Mar-26 21:18 137 18 gusting 24 0.6
2015-Mar-26 21:08 165 15 gusting 27 0.6
2015-Mar-26 20:58 134 19 gusting 26 0.6
2015-Mar-26 20:48 142 20 gusting 28 0.6
2015-Mar-26 20:38 132 17 gusting 26 -0.0
2015-Mar-26 20:28 151 20 gusting 30 -0.0
2015-Mar-26 20:18 130 17 gusting 28 0.6
2015-Mar-26 20:08 153 24 gusting 33 0.6
2015-Mar-26 19:58 138 21 gusting 30 0.6
2015-Mar-26 19:48 134 13 gusting 28 0.6
2015-Mar-26 19:38 144 15 gusting 25 0.6
2015-Mar-26 19:28 129 18 gusting 27 0.6
2015-Mar-26 19:18 120 10 gusting 20 0.6
2015-Mar-26 19:08 145 19 gusting 34 0.6
2015-Mar-26 18:58 131 19 gusting 26 -0.0
2015-Mar-26 18:48 134 16 gusting 28 -0.0
2015-Mar-26 18:38 130 20 gusting 30 -0.0
2015-Mar-26 18:28 113 19 gusting 30 -0.0
2015-Mar-26 18:18 129 22 gusting 33 -0.0
2015-Mar-26 18:08 140 21 gusting 32 -0.0
2015-Mar-26 17:58 142 19 gusting 30 -0.0
2015-Mar-26 17:48 143 19 gusting 30 -0.0
2015-Mar-26 17:38 140 15 gusting 20 -0.0
2015-Mar-26 17:28 130 15 gusting 22 -0.6
2015-Mar-26 17:18 131 15 gusting 25 -0.6
2015-Mar-26 17:08 130 17 gusting 22 -0.6
2015-Mar-26 16:58 135 18 gusting 26 -0.0
2015-Mar-26 16:48 128 20 gusting 30 -0.0
2015-Mar-26 16:38 138 13 gusting 24 -0.0
2015-Mar-26 16:28 138 12 gusting 22 -0.0
2015-Mar-26 16:18 137 14 gusting 22 -0.6
2015-Mar-26 16:08 137 18 gusting 30 -0.0
2015-Mar-26 15:58 151 14 gusting 25 -0.0
2015-Mar-26 15:48 143 19 gusting 26 -0.0
2015-Mar-26 15:38 134 12 gusting 24 -0.0
2015-Mar-26 15:28 139 14 gusting 25 0.6
2015-Mar-26 15:18 125 15 gusting 26 0.6
2015-Mar-26 15:08 124 21 gusting 28 0.6
2015-Mar-26 14:58 129 12 gusting 25 0.6
2015-Mar-26 14:48 129 13 gusting 24 0.6
2015-Mar-26 14:38 139 13 gusting 21 0.6
2015-Mar-26 14:28 129 11 gusting 17 0.6
2015-Mar-26 14:18 106 13 gusting 21 0.6
2015-Mar-26 14:08 115 15 gusting 22 -0.0
2015-Mar-26 13:58 115 8 gusting 21 -0.0
2015-Mar-26 13:48 117 13 gusting 25 -0.0
2015-Mar-26 13:38 118 10 gusting 24 -0.0
2015-Mar-26 13:28 118 16 gusting 31 -0.0
2015-Mar-26 13:18 133 19 gusting 33 -0.0
2015-Mar-26 13:08 124 15 gusting 24 -0.0
2015-Mar-26 12:58 133 16 gusting 24 -0.0
2015-Mar-26 12:48 145 13 gusting 26 -0.0
2015-Mar-26 12:38 129 15 gusting 22 0.6
2015-Mar-26 12:28 141 14 gusting 20 0.6
2015-Mar-26 12:18 126 13 gusting 20 0.6
2015-Mar-26 12:08 119 13 gusting 20 0.6
2015-Mar-26 11:58 136 13 gusting 26 -0.0
2015-Mar-26 11:48 095 15 gusting 26 -0.0
2015-Mar-26 11:38 115 15 gusting 24 0.6
2015-Mar-26 11:28 142 14 gusting 22 0.6
2015-Mar-26 11:18 123 13 gusting 25 0.6
2015-Mar-26 11:08 133 13 gusting 20 0.6
2015-Mar-26 10:58 143 13 gusting 22 0.6
2015-Mar-26 10:48 120 13 gusting 20 0.6
2015-Mar-26 10:38 143 13 gusting 19 0.6
2015-Mar-26 10:28 143 13 gusting 22 0.6
2015-Mar-26 10:18 135 14 gusting 24 0.6
2015-Mar-26 10:08 132 17 gusting 25 0.6
2015-Mar-26 09:58 128 14 gusting 24 0.6
2015-Mar-26 09:48 139 11 gusting 19 0.6
2015-Mar-26 09:38 127 13 gusting 20 0.6
2015-Mar-26 09:28 132 13 gusting 22 0.6
2015-Mar-26 09:18 140 11 gusting 18 0.6
2015-Mar-26 09:08 139 11 gusting 17 0.6
2015-Mar-26 08:58 132 12 gusting 19 0.6
2015-Mar-26 08:48 130 11 gusting 19 -0.0
2015-Mar-26 08:38 143 11 gusting 19 -0.0
2015-Mar-26 08:28 140 11 gusting 18 -0.0
2015-Mar-26 08:18 153 6 gusting 17 -0.0
2015-Mar-26 08:08 144 8 gusting 17 -0.0
2015-Mar-26 07:58 153 9 gusting 20 -0.0
2015-Mar-26 07:48 153 11 gusting 17 -0.0
2015-Mar-26 07:38 145 7 gusting 14 -0.6
2015-Mar-26 07:28 134 10 gusting 17 -0.6
2015-Mar-26 07:18 145 7 gusting 17 -1.1
2015-Mar-26 07:08 145 8 gusting 14 -1.1
2015-Mar-26 06:58 165 6 gusting 12 -1.7
2015-Mar-26 06:48 163 6 gusting 15 -1.7
2015-Mar-26 06:38 162 7 gusting 15 -1.7
2015-Mar-26 06:28 145 8 gusting 15 -1.7
2015-Mar-26 06:18 138 6 gusting 15 -1.7
2015-Mar-26 06:08 143 8 gusting 14 -2.2
2015-Mar-26 05:58 166 9 gusting 13 -2.2
2015-Mar-26 05:48 149 6 gusting 11 -2.8
2015-Mar-26 05:38 151 0 gusting 8 -2.8
2015-Mar-26 05:28 161 6 gusting 12 -2.2
2015-Mar-26 05:18 164 5 gusting 10 -2.8
2015-Mar-26 05:08 159 4 gusting 8 -2.8
2015-Mar-26 04:58 156 5 gusting 12 -2.8
2015-Mar-26 04:48 125 4 gusting 13 -2.8
2015-Mar-26 04:38 151 6 gusting 17 -2.8
2015-Mar-26 04:28 137 8 gusting 17 -2.8
2015-Mar-26 04:18 126 7 gusting 13 -2.8
2015-Mar-26 04:08 124 9 gusting 15 -2.8
2015-Mar-26 03:58 125 8 gusting 12 -2.8
2015-Mar-26 03:48 129 6 gusting 15 -2.8
2015-Mar-26 03:38 141 5 gusting 10 -2.8
2015-Mar-26 03:28 138 6 gusting 11 -2.8
2015-Mar-26 03:18 138 6 gusting 12 -2.8
2015-Mar-26 03:08 122 4 gusting 12 -2.8
2015-Mar-26 02:58 117 8 gusting 14 -2.8
2015-Mar-26 02:48 146 5 gusting 13 -2.8
2015-Mar-26 02:38 132 8 gusting 14 -2.8
2015-Mar-26 02:28 127 7 gusting 17 -2.8
2015-Mar-26 02:18 121 7 gusting 14 -2.8
2015-Mar-26 02:08 131 7 gusting 17 -2.8
2015-Mar-26 01:58 120 11 gusting 15 -3.3
2015-Mar-26 01:48 125 10 gusting 14 -3.3
2015-Mar-26 01:38 122 6 gusting 15 -3.3
2015-Mar-26 01:28 131 4 gusting 14 -3.3
2015-Mar-26 01:18 114 10 gusting 14 -3.3
2015-Mar-26 01:08 127 10 gusting 19 -3.3
2015-Mar-26 00:58 123 9 gusting 15 -3.3
2015-Mar-26 00:48 124 6 gusting 13 -3.3
2015-Mar-26 00:38 126 6 gusting 14 -3.9
2015-Mar-26 00:28 135 7 gusting 12 -3.9
2015-Mar-26 00:18 112 10 gusting 14 -3.9
2015-Mar-26 00:08 121 8 gusting 17 -3.9
2015-Mar-25 23:58 114 6 gusting 13 -3.9
2015-Mar-25 23:48 109 6 gusting 15 -3.9
2015-Mar-25 23:38 107 6 gusting 12 -3.9
2015-Mar-25 23:28 112 7 gusting 10 -3.9
2015-Mar-25 23:18 125 6 gusting 12 -3.9
2015-Mar-25 23:08 117 6 gusting 12 -3.9
2015-Mar-25 22:58 129 6 gusting 13 -3.9
2015-Mar-25 22:48 133 6 gusting 13 -3.9
2015-Mar-25 22:38 134 1 gusting 10 -3.9
2015-Mar-25 22:28 132 5 gusting 8 -4.4
2015-Mar-25 22:18 124 -4.4
2015-Mar-25 22:08 125 0 gusting 2 -4.4
2015-Mar-25 21:58 124 -4.4
2015-Mar-25 21:48 124 0 gusting 7 -4.4
2015-Mar-25 21:38 122 -3.9
2015-Mar-25 21:28 122 1 gusting 7 -3.9
2015-Mar-25 21:18 122 2 gusting 7 -3.3
2015-Mar-25 21:08 116 4 gusting 8 -3.3
2015-Mar-25 20:58 115 2 gusting 10 -3.3
2015-Mar-25 20:48 125 2 gusting 6 -3.3
2015-Mar-25 20:38 125 4 gusting 8 -3.3
2015-Mar-25 20:28 116 2 gusting 6 -3.3
2015-Mar-25 20:18 115 2 gusting 6 -3.3
2015-Mar-25 20:08 120 2 gusting 7 -3.3
2015-Mar-25 19:58 119 1 gusting 5 -3.3
2015-Mar-25 19:48 117 2 gusting 8 -2.8
2015-Mar-25 19:38 121 2 gusting 8 -2.8
2015-Mar-25 19:28 118 4 gusting 8 -2.8
2015-Mar-25 19:18 121 6 gusting 10 -2.8
2015-Mar-25 19:08 119 5 gusting 10 -2.8
2015-Mar-25 18:58 124 4 gusting 7 -2.8
2015-Mar-25 18:48 113 1 gusting 6 -2.8
2015-Mar-25 18:38 119 0 gusting 4 -2.2
2015-Mar-25 18:28 119 1 gusting 6 -2.2
2015-Mar-25 18:18 120 4 gusting 8 -2.2
2015-Mar-25 18:08 123 6 gusting 10 -1.7
2015-Mar-25 17:58 126 6 gusting 10 -1.7
2015-Mar-25 17:48 137 3 gusting 11 -1.7
2015-Mar-25 17:38 128 6 gusting 10 -1.1
2015-Mar-25 17:28 126 6 gusting 11 -1.1
2015-Mar-25 17:18 130 5 gusting 10 -1.1
2015-Mar-25 17:08 127 5 gusting 10 -0.6
2015-Mar-25 16:58 116 4 gusting 8 -0.6
2015-Mar-25 16:48 132 5 gusting 10 -0.0
2015-Mar-25 16:38 124 5 gusting 10 -0.0
2015-Mar-25 16:28 128 5 gusting 10 0.6
2015-Mar-25 16:18 130 2 gusting 8 0.6
2015-Mar-25 16:08 121 2 gusting 8 1.1
2015-Mar-25 15:58 114 4 gusting 10 1.7
2015-Mar-25 15:48 120 3 gusting 12 1.1
2015-Mar-25 15:38 129 5 gusting 11 1.7
2015-Mar-25 15:28 120 5 gusting 10 2.2
2015-Mar-25 15:18 139 2 gusting 6 2.2
2015-Mar-25 15:08 132 1 gusting 6 2.2
2015-Mar-25 14:58 155 1 gusting 8 2.2
2015-Mar-25 14:48 122 6 gusting 10 2.2
2015-Mar-25 14:38 125 3 gusting 12 2.2
2015-Mar-25 14:28 108 3 gusting 10 2.8
2015-Mar-25 14:18 120 2 gusting 8 2.8
2015-Mar-25 14:08 120 1 gusting 7 2.2
2015-Mar-25 13:58 122 1 gusting 10 2.2
2015-Mar-25 13:48 109 2 gusting 10 2.2
2015-Mar-25 13:38 118 5 gusting 10 2.2
2015-Mar-25 13:28 124 6 gusting 11 2.2
2015-Mar-25 13:18 120 6 gusting 10 2.2
2015-Mar-25 13:08 120 6 gusting 12 2.2
2015-Mar-25 12:58 116 5 gusting 11 2.2
2015-Mar-25 12:48 112 6 gusting 15 2.2
2015-Mar-25 12:38 116 7 gusting 13 2.2
2015-Mar-25 12:28 115 8 gusting 13 2.2
2015-Mar-25 12:18 122 7 gusting 13 1.7
2015-Mar-25 12:08 120 6 gusting 12 1.7
2015-Mar-25 11:58 119 7 gusting 13 1.1
2015-Mar-25 11:48 117 8 gusting 13 1.7
2015-Mar-25 11:38 119 8 gusting 13 1.7
2015-Mar-25 11:28 124 8 gusting 12 2.2
2015-Mar-25 11:18 125 5 gusting 10 1.7
2015-Mar-25 11:08 118 6 gusting 13 1.1
2015-Mar-25 10:58 122 7 gusting 13 1.7
2015-Mar-25 10:48 127 8 gusting 12 1.7
2015-Mar-25 10:38 134 2 gusting 10 2.2
2015-Mar-25 10:28 130 2 gusting 6 2.2
2015-Mar-25 10:18 124 0 gusting 5 1.7
2015-Mar-25 10:08 121 3 gusting 11 1.7
2015-Mar-25 09:58 115 4 gusting 10 1.1
2015-Mar-25 09:48 127 2 gusting 8 1.1
2015-Mar-25 09:38 126 5 gusting 10 0.6
2015-Mar-25 09:28 122 6 gusting 11 0.6
2015-Mar-25 09:18 121 6 gusting 10 0.6
2015-Mar-25 09:08 129 3 gusting 7 -0.0
2015-Mar-25 08:58 120 6 gusting 10 -0.0
2015-Mar-25 08:48 139 1 gusting 6 -0.0
2015-Mar-25 08:38 139 1 gusting 6 -0.0
2015-Mar-25 08:28 131 1 gusting 7 -0.6
2015-Mar-25 08:18 137 3 gusting 10 -0.6
2015-Mar-25 08:08 128 0 gusting 5 -1.1
2015-Mar-25 07:58 151 2 gusting 6 -1.7
2015-Mar-25 07:48 155 1 gusting 6 -2.2
2015-Mar-25 07:38 161 1 gusting 6 -2.8
2015-Mar-25 07:28 184 2 gusting 7 -3.3
2015-Mar-25 07:18 176 2 gusting 7 -3.9
2015-Mar-25 07:08 169 1 gusting 5 -3.9
2015-Mar-25 06:58 154 0 gusting 6 -4.4
2015-Mar-25 06:48 169 1 gusting 4 -5.0
2015-Mar-25 06:38 185 0 gusting 4 -5.0
2015-Mar-25 06:28 289 -5.6
2015-Mar-25 06:18 290 -5.6
2015-Mar-25 06:08 273 -5.6
2015-Mar-25 05:58 166 -5.6
2015-Mar-25 05:48 166 -5.6
2015-Mar-25 05:38 166 0 gusting 4 -5.6
2015-Mar-25 05:28 163 1 gusting 6 -6.1
2015-Mar-25 05:18 155 -5.6
2015-Mar-25 05:08 155 -5.6
2015-Mar-25 04:58 166 -5.6
2015-Mar-25 04:48 199 0 gusting 4 -5.6
2015-Mar-25 04:38 137 -5.6
2015-Mar-25 04:28 123 -5.6
2015-Mar-25 04:18 123 1 gusting 7 -5.6
2015-Mar-25 04:08 134 1 gusting 8 -5.6
2015-Mar-25 03:58 118 4 gusting 10 -6.1
2015-Mar-25 03:48 111 -6.1
2015-Mar-25 03:38 111 -6.1
2015-Mar-25 03:28 111 2 gusting 6 -5.6
2015-Mar-25 03:18 125 3 gusting 7 -5.6
2015-Mar-25 03:09 124 4 gusting 10 -5.6